Accueil
METAR-TAF:

METAR-TAF

Aéroports :

Florianópolis, Santa Catarina, Brésil

Aéroport international Hercílio Luz

latitude: 27-40S, longitude: 048-33W, altitude: 5 m

Observation

Le bulletin a été fait il y a 58 minutes, à 16:00 UTC
Vent 3 kt de nord/nord-ouest
Température 28°C
Humidité 37%
Pression 1022 hPa
Visibilité 10 km ou plus
pas de nuages en-dessous de 1500 mètres et pas de cumulonimbus.

METAR: SBFL 251600Z 33003KT CAVOK 28/12 Q1022

Heure: 13:58 (16:58 UTC)

Prévision

Le bulletin a été fait il y a 7 heures et 58 minutes, à 09:00 UTC
Prévision valable du 25 à 12 UTC au 26 à 12 UTC
Vent 6 kt de nord
Visibilité 10 km ou plus
pas de nuages en-dessous de 1500 mètres et pas de cumulonimbus.
Evoluant progressivement
du 25 à 14 UTC au 25 à 16 UTC
Vent 6 kt de nord/nord-est

TAF: SBFL 250900Z 2512/2612 35006KT CAVOK TX29/2518Z TN16/2609Z BECMG 2514/2516 02006KT RMK PDJ

Observations et prévisions météorologiques de plus de 4000 aéroports (messages METAR et TAF).

Les stations disponibles sont représentées par des disques jaunes et rouges sur la carte.

Passer la souris dessus pour voir le nom de la station.

Cliquer dessus pour voir les observations et prévisions météorologiques.

Pour changer de carte: cliquez sur les boutons verts avec une croix noire pour zoomer, sur le bouton vert avec un tiret pour effectuer un zoom arrière, ou sur les flèches vertes pour les cartes adjacentes.


METAR-TAF: